createdAt,value
2018-05-11T00:01:13.781Z,3.73
2018-05-11T00:03:41.259Z,3.80
2018-05-11T00:06:08.825Z,4.17
2018-05-11T00:08:36.508Z,4.33
2018-05-11T00:11:04.035Z,3.90
2018-05-11T00:13:31.482Z,4.20
2018-05-11T00:15:59.074Z,3.40
2018-05-11T00:18:26.523Z,3.67
2018-05-11T00:20:54.066Z,3.53
2018-05-11T00:23:21.537Z,4.30
2018-05-11T00:25:48.985Z,3.50
2018-05-11T00:28:16.447Z,3.77
2018-05-11T00:30:43.885Z,3.63
2018-05-11T00:33:11.424Z,3.67
2018-05-11T00:35:38.994Z,3.50
2018-05-11T00:38:06.587Z,4.07
2018-05-11T00:40:34.025Z,4.00
2018-05-11T00:43:01.563Z,3.63
2018-05-11T00:45:29.154Z,3.60
2018-05-11T00:47:56.700Z,3.37
2018-05-11T00:50:24.469Z,3.40
2018-05-11T00:52:51.911Z,3.93
2018-05-11T00:55:31.148Z,3.97
2018-05-11T00:57:58.602Z,4.10
2018-05-11T01:00:26.173Z,3.40
2018-05-11T01:02:53.723Z,3.47
2018-05-11T01:05:21.287Z,3.50
2018-05-11T01:07:48.761Z,3.60
2018-05-11T01:10:16.419Z,3.40
2018-05-11T01:12:43.886Z,3.50
2018-05-11T01:15:12.909Z,3.97
2018-05-11T01:17:41.244Z,3.40
2018-05-11T01:20:08.677Z,3.97
2018-05-11T01:22:36.109Z,3.17
2018-05-11T01:25:03.591Z,3.77
2018-05-11T01:27:31.032Z,3.73
2018-05-11T01:29:58.515Z,3.33
2018-05-11T01:32:25.992Z,3.80
2018-05-11T01:34:53.642Z,3.40
2018-05-11T01:37:21.164Z,3.60
2018-05-11T01:39:48.926Z,3.33
2018-05-11T01:42:16.260Z,3.97
2018-05-11T01:44:43.755Z,3.53
2018-05-11T01:47:11.196Z,3.23
2018-05-11T01:49:38.853Z,3.43
2018-05-11T01:52:06.305Z,3.50
2018-05-11T01:54:33.729Z,3.50
2018-05-11T01:57:01.238Z,3.87
2018-05-11T01:59:28.760Z,3.60
2018-05-11T02:01:57.104Z,3.13
2018-05-11T02:04:25.050Z,3.70
2018-05-11T02:06:52.630Z,3.67
2018-05-11T02:09:20.183Z,4.07
2018-05-11T02:11:47.750Z,3.73
2018-05-11T02:14:15.184Z,3.57
2018-05-11T02:16:42.645Z,3.97
2018-05-11T02:19:10.311Z,4.00
2018-05-11T02:21:37.953Z,3.93
2018-05-11T02:24:05.397Z,3.83
2018-05-11T02:26:33.316Z,3.60
2018-05-11T02:29:00.744Z,3.80
2018-05-11T02:31:29.630Z,3.67
2018-05-11T02:33:57.385Z,4.40
2018-05-11T02:36:24.850Z,3.20
2018-05-11T02:38:52.353Z,3.70
2018-05-11T02:41:20.555Z,3.27
2018-05-11T02:43:48.015Z,3.77
2018-05-11T02:46:15.459Z,3.90
2018-05-11T02:48:43.060Z,3.60
2018-05-11T02:51:10.585Z,3.80
2018-05-11T02:53:38.171Z,4.27
2018-05-11T02:56:05.619Z,3.87
2018-05-11T02:58:33.093Z,3.67
2018-05-11T03:01:00.617Z,4.27
2018-05-11T03:03:28.220Z,3.70
2018-05-11T03:05:55.875Z,3.30
2018-05-11T03:08:23.391Z,3.73
2018-05-11T03:10:50.846Z,3.33
2018-05-11T03:13:18.323Z,3.43
2018-05-11T03:15:45.881Z,3.40
2018-05-11T03:18:13.347Z,3.70
2018-05-11T03:20:40.791Z,3.10
2018-05-11T03:23:08.228Z,3.57
2018-05-11T03:25:35.736Z,3.37
2018-05-11T03:28:03.174Z,3.20
2018-05-11T03:30:30.800Z,3.40
2018-05-11T03:32:59.310Z,3.80
2018-05-11T03:35:26.988Z,3.50
2018-05-11T03:37:55.946Z,3.63
2018-05-11T03:40:23.462Z,3.13
2018-05-11T03:42:51.662Z,3.27
2018-05-11T03:45:19.247Z,3.63
2018-05-11T03:47:46.907Z,2.83
2018-05-11T03:50:14.396Z,3.40
2018-05-11T03:52:41.906Z,3.13
2018-05-11T03:55:09.496Z,3.20
2018-05-11T03:57:37.031Z,3.33
2018-05-11T04:00:04.712Z,3.53
2018-05-11T04:02:44.012Z,3.40
2018-05-11T04:05:23.245Z,3.63
2018-05-11T04:08:03.627Z,3.33
2018-05-11T04:10:31.289Z,2.97
2018-05-11T04:12:58.825Z,3.13
2018-05-11T04:15:26.280Z,3.00
2018-05-11T04:17:53.717Z,3.13
2018-05-11T04:20:21.318Z,3.40
2018-05-11T04:22:48.786Z,3.37
2018-05-11T04:25:16.411Z,3.30
2018-05-11T04:27:43.969Z,3.17
2018-05-11T04:30:11.614Z,3.23
2018-05-11T04:32:38.988Z,2.90
2018-05-11T04:35:07.210Z,3.33
2018-05-11T04:37:34.750Z,3.50
2018-05-11T04:40:02.213Z,3.30
2018-05-11T04:42:29.742Z,3.13
2018-05-11T04:44:57.208Z,3.43
2018-05-11T04:47:24.784Z,3.33
2018-05-11T04:49:52.429Z,3.17
2018-05-11T04:52:19.877Z,3.10
2018-05-11T04:54:47.361Z,3.93
2018-05-11T04:57:14.811Z,3.30
2018-05-11T04:59:42.267Z,4.10
2018-05-11T05:02:09.712Z,3.53
2018-05-11T05:04:37.189Z,3.83
2018-05-11T05:07:06.150Z,3.60
2018-05-11T05:09:33.783Z,3.80
2018-05-11T05:12:01.266Z,4.20
2018-05-11T05:14:28.832Z,3.60
2018-05-11T05:16:56.264Z,3.40
2018-05-11T05:19:23.830Z,3.83
2018-05-11T05:21:51.242Z,3.93
2018-05-11T05:24:18.742Z,3.80
2018-05-11T05:26:46.385Z,3.77
2018-05-11T05:29:13.862Z,4.37
2018-05-11T05:31:41.334Z,3.93
2018-05-11T05:34:08.778Z,3.80
2018-05-11T05:36:36.223Z,3.80
2018-05-11T05:39:03.825Z,3.57
2018-05-11T05:41:31.278Z,3.67
2018-05-11T05:43:58.939Z,3.53
2018-05-11T05:46:26.602Z,3.67
2018-05-11T05:48:54.060Z,3.33
2018-05-11T05:51:23.005Z,3.77
2018-05-11T05:53:50.462Z,3.50
2018-05-11T05:56:18.055Z,4.07
2018-05-11T05:58:45.512Z,4.10
2018-05-11T06:01:12.981Z,4.20
2018-05-11T06:03:40.439Z,3.57
2018-05-11T06:06:07.896Z,3.83
2018-05-11T06:08:36.563Z,3.23
2018-05-11T06:11:04.181Z,3.90
2018-05-11T06:13:31.767Z,3.43
2018-05-11T06:15:59.216Z,4.70
2018-05-11T06:18:26.797Z,4.43
2018-05-11T06:20:54.445Z,3.73
2018-05-11T06:23:21.893Z,3.67
2018-05-11T06:25:49.387Z,4.67
2018-05-11T06:28:17.043Z,3.80
2018-05-11T06:30:44.689Z,4.37
2018-05-11T06:33:12.220Z,3.67
2018-05-11T06:35:39.673Z,4.07
2018-05-11T06:38:07.138Z,4.20
2018-05-11T06:40:34.780Z,4.67
2018-05-11T06:43:02.553Z,4.83
2018-05-11T06:45:30.174Z,5.00
2018-05-11T06:47:57.991Z,4.47
2018-05-11T06:50:26.030Z,4.43
2018-05-11T06:52:53.524Z,4.33
2018-05-11T06:55:20.966Z,4.30
2018-05-11T06:57:48.435Z,4.40
2018-05-11T07:00:16.513Z,4.47
2018-05-11T07:02:44.178Z,4.23
2018-05-11T07:05:11.738Z,3.83
2018-05-11T07:07:39.252Z,4.07
2018-05-11T07:10:06.667Z,3.70
2018-05-11T07:12:35.815Z,4.20
2018-05-11T07:15:03.250Z,4.13
2018-05-11T07:17:30.821Z,4.00
2018-05-11T07:19:58.677Z,3.90
2018-05-11T07:22:26.135Z,3.87
2018-05-11T07:24:53.664Z,4.33
2018-05-11T07:27:21.135Z,4.13
2018-05-11T07:29:48.589Z,4.17
2018-05-11T07:32:16.219Z,4.47
2018-05-11T07:34:45.182Z,5.03
2018-05-11T07:37:12.650Z,4.00
2018-05-11T07:39:40.426Z,4.13
2018-05-11T07:42:08.077Z,4.53
2018-05-11T07:44:35.615Z,3.83
2018-05-11T07:47:05.957Z,4.43
2018-05-11T07:49:33.532Z,3.60
2018-05-11T07:52:01.201Z,3.80
2018-05-11T07:54:28.697Z,3.40
2018-05-11T07:56:57.524Z,3.23
2018-05-11T07:59:25.285Z,3.30
2018-05-11T08:01:54.357Z,2.97
2018-05-11T08:04:22.758Z,3.13
2018-05-11T08:06:50.212Z,3.53
2018-05-11T08:09:17.885Z,3.30
2018-05-11T08:11:45.823Z,3.17
2018-05-11T08:14:13.427Z,3.10
2018-05-11T08:16:40.857Z,2.73
2018-05-11T08:19:08.338Z,3.00
2018-05-11T08:21:36.553Z,2.77
2018-05-11T08:24:04.031Z,3.00
2018-05-11T08:26:31.590Z,3.00
2018-05-11T08:28:58.973Z,3.90
2018-05-11T08:31:26.508Z,2.77
2018-05-11T08:33:54.072Z,2.90
2018-05-11T08:36:21.585Z,3.23
2018-05-11T08:38:49.189Z,3.50
2018-05-11T08:41:16.629Z,2.73
2018-05-11T08:43:44.256Z,3.20
2018-05-11T08:46:12.461Z,3.20
2018-05-11T08:48:40.044Z,3.40
2018-05-11T08:51:07.698Z,3.43
2018-05-11T08:53:35.233Z,3.30
2018-05-11T08:56:02.717Z,3.10
2018-05-11T08:58:30.363Z,3.30
2018-05-11T09:00:57.955Z,2.90
2018-05-11T09:03:25.641Z,3.03
2018-05-11T09:05:53.162Z,2.70
2018-05-11T09:08:20.777Z,2.97
2018-05-11T09:10:48.312Z,2.97
2018-05-11T09:13:16.521Z,2.90
2018-05-11T09:15:43.986Z,2.70
2018-05-11T09:18:11.432Z,2.67
2018-05-11T09:20:39.040Z,2.20
2018-05-11T09:23:06.487Z,2.50
2018-05-11T09:25:33.944Z,2.70
2018-05-11T09:28:01.476Z,2.73
2018-05-11T09:30:29.267Z,2.10
2018-05-11T09:32:56.709Z,2.83
2018-05-11T09:35:24.251Z,3.50
2018-05-11T09:37:51.769Z,2.50
2018-05-11T09:40:19.323Z,3.03
2018-05-11T09:42:46.812Z,3.63
2018-05-11T09:45:14.410Z,2.50
2018-05-11T09:47:42.083Z,2.80
2018-05-11T09:50:09.522Z,2.20
2018-05-11T09:52:37.064Z,2.80
2018-05-11T09:55:04.585Z,2.33
2018-05-11T09:57:31.984Z,2.80
2018-05-11T09:59:59.759Z,2.50
2018-05-11T10:02:27.197Z,3.03
2018-05-11T10:04:54.856Z,2.70
2018-05-11T10:07:22.417Z,3.10
2018-05-11T10:09:49.933Z,2.93
2018-05-11T10:12:18.140Z,2.60
2018-05-11T10:14:45.599Z,2.70
2018-05-11T10:17:13.041Z,2.67
2018-05-11T10:19:40.557Z,2.37
2018-05-11T10:22:08.790Z,2.50
2018-05-11T10:24:36.228Z,2.50
2018-05-11T10:27:03.668Z,2.57
2018-05-11T10:29:31.288Z,2.83
2018-05-11T10:31:58.731Z,2.40
2018-05-11T10:34:26.303Z,2.80
2018-05-11T10:36:53.719Z,2.63
2018-05-11T10:39:21.240Z,2.17
2018-05-11T10:41:49.450Z,2.67
2018-05-11T10:44:16.920Z,2.30
2018-05-11T10:46:44.378Z,2.73
2018-05-11T10:49:11.935Z,2.63
2018-05-11T10:51:39.592Z,2.87
2018-05-11T10:54:07.058Z,2.60
2018-05-11T10:56:34.503Z,2.63
2018-05-11T10:59:01.962Z,2.80
2018-05-11T11:01:29.680Z,2.23
2018-05-11T11:03:57.301Z,2.70
2018-05-11T11:06:26.669Z,2.70
2018-05-11T11:08:54.249Z,3.10
2018-05-11T11:11:21.697Z,2.60
2018-05-11T11:13:49.209Z,3.20
2018-05-11T11:16:16.828Z,2.80
2018-05-11T11:18:44.277Z,2.70
2018-05-11T11:21:11.949Z,3.03
2018-05-11T11:23:39.406Z,2.80
2018-05-11T11:26:07.748Z,2.90
2018-05-11T11:28:35.338Z,2.93
2018-05-11T11:31:02.864Z,3.30
2018-05-11T11:33:30.456Z,2.80
2018-05-11T11:35:57.922Z,3.10
2018-05-11T11:38:25.378Z,3.03
2018-05-11T11:40:52.892Z,2.67
2018-05-11T11:43:20.351Z,2.80
2018-05-11T11:45:47.813Z,2.77
2018-05-11T11:48:15.267Z,2.83
2018-05-11T11:50:42.854Z,3.30
2018-05-11T11:53:10.529Z,3.57
2018-05-11T11:55:38.165Z,2.33
2018-05-11T11:58:05.612Z,2.67
2018-05-11T12:00:33.210Z,2.10
2018-05-11T12:03:00.945Z,2.93
2018-05-11T12:05:28.484Z,2.40
2018-05-11T12:07:56.036Z,2.83
2018-05-11T12:10:23.722Z,2.53
2018-05-11T12:12:51.200Z,2.63
2018-05-11T12:15:18.839Z,2.67
2018-05-11T12:17:46.384Z,3.10
2018-05-11T12:20:13.931Z,2.87
2018-05-11T12:22:41.631Z,2.57
2018-05-11T12:25:09.282Z,2.80
2018-05-11T12:27:36.809Z,2.70
2018-05-11T12:30:04.354Z,2.50
2018-05-11T12:32:31.803Z,3.00
2018-05-11T12:35:00.077Z,3.87
2018-05-11T12:37:28.421Z,2.87
2018-05-11T12:39:56.067Z,2.80
2018-05-11T12:42:23.515Z,3.20
2018-05-11T12:44:51.009Z,2.90
2018-05-11T12:47:18.459Z,2.87
2018-05-11T12:49:46.092Z,3.20
2018-05-11T12:52:13.566Z,2.70
2018-05-11T12:54:41.016Z,3.00
2018-05-11T12:57:08.563Z,2.60
2018-05-11T12:59:36.337Z,2.60
2018-05-11T13:02:03.796Z,2.57
2018-05-11T13:04:31.440Z,2.70
2018-05-11T13:06:58.904Z,2.50
2018-05-11T13:09:26.359Z,2.53
2018-05-11T13:11:53.824Z,3.03
2018-05-11T13:14:21.282Z,2.97
2018-05-11T13:16:49.013Z,2.67
2018-05-11T13:19:16.472Z,2.80
2018-05-11T13:21:43.913Z,2.50
2018-05-11T13:24:11.376Z,2.50
2018-05-11T13:26:38.831Z,2.50
2018-05-11T13:29:06.359Z,2.47
2018-05-11T13:31:34.680Z,2.80
2018-05-11T13:34:02.171Z,3.23
2018-05-11T13:36:29.682Z,2.93
2018-05-11T13:38:57.128Z,2.60
2018-05-11T13:41:24.707Z,3.00
2018-05-11T13:43:52.262Z,3.20
2018-05-11T13:46:19.831Z,2.83
2018-05-11T13:48:47.314Z,3.00
2018-05-11T13:51:14.766Z,2.97
2018-05-11T13:53:42.296Z,3.37
2018-05-11T13:56:09.769Z,3.07
2018-05-11T13:58:37.266Z,3.30
2018-05-11T14:01:05.483Z,2.80
2018-05-11T14:03:32.963Z,3.20
2018-05-11T14:06:00.514Z,3.90
2018-05-11T14:08:27.959Z,3.73
2018-05-11T14:10:55.632Z,3.50
2018-05-11T14:13:23.269Z,3.57
2018-05-11T14:15:50.813Z,3.40
2018-05-11T14:18:18.403Z,3.17
2018-05-11T14:20:45.849Z,3.10
2018-05-11T14:23:13.319Z,3.10
2018-05-11T14:25:40.973Z,3.67
2018-05-11T14:28:08.417Z,3.87
2018-05-11T14:30:35.970Z,4.13
2018-05-11T14:33:03.403Z,3.70
2018-05-11T14:35:30.866Z,3.90
2018-05-11T14:37:58.452Z,3.00
2018-05-11T14:40:26.131Z,3.10
2018-05-11T14:42:53.561Z,3.70
2018-05-11T14:45:21.101Z,3.20
2018-05-11T14:47:48.559Z,3.40
2018-05-11T14:50:16.359Z,3.87
2018-05-11T14:52:44.027Z,3.90
2018-05-11T14:55:11.477Z,3.47
2018-05-11T14:57:38.947Z,4.47
2018-05-11T15:00:06.595Z,4.13
2018-05-11T15:02:34.222Z,4.13
2018-05-11T15:05:01.782Z,4.00
2018-05-11T15:07:29.217Z,3.60
2018-05-11T15:09:56.745Z,3.80
2018-05-11T15:12:24.974Z,4.00
2018-05-11T15:14:52.418Z,4.30
2018-05-11T15:17:20.005Z,4.17
2018-05-11T15:19:47.586Z,4.37
2018-05-11T15:22:15.027Z,3.67
2018-05-11T15:24:42.475Z,3.80
2018-05-11T15:27:10.030Z,3.67
2018-05-11T15:29:37.493Z,3.97
2018-05-11T15:32:05.173Z,4.37
2018-05-11T15:34:32.618Z,7.47
2018-05-11T15:37:00.061Z,4.53
2018-05-11T15:39:27.729Z,4.63
2018-05-11T15:41:55.205Z,4.07
2018-05-11T15:44:22.624Z,5.43
2018-05-11T15:46:50.109Z,4.23
2018-05-11T15:49:17.553Z,4.37
2018-05-11T15:51:45.607Z,5.40
2018-05-11T15:54:14.385Z,5.03
2018-05-11T15:56:41.830Z,4.73
2018-05-11T15:59:09.458Z,5.47
2018-05-11T16:01:36.912Z,4.60
2018-05-11T16:04:04.349Z,5.30
2018-05-11T16:06:32.621Z,4.63
2018-05-11T16:09:00.140Z,4.87
2018-05-11T16:11:27.730Z,4.40
2018-05-11T16:13:55.372Z,5.63
2018-05-11T16:16:22.932Z,8.83
2018-05-11T16:18:50.445Z,3.80
2018-05-11T16:21:18.661Z,7.93
2018-05-11T16:23:46.239Z,7.93
2018-05-11T16:26:13.883Z,7.77
2018-05-11T16:28:41.329Z,9.07
2018-05-11T16:31:08.811Z,8.63
2018-05-11T16:33:36.337Z,8.93
2018-05-11T16:36:03.912Z,8.97
2018-05-11T16:38:31.458Z,9.13
2018-05-11T16:40:58.903Z,8.10
2018-05-11T16:43:26.368Z,7.90
2018-05-11T16:45:53.835Z,7.87
2018-05-11T16:48:21.291Z,5.23
2018-05-11T16:50:48.743Z,5.37
2018-05-11T16:53:16.188Z,5.60
2018-05-11T16:55:44.603Z,6.10
2018-05-11T16:58:12.132Z,5.07
2018-05-11T17:00:39.579Z,5.00
2018-05-11T17:03:07.040Z,5.13
2018-05-11T17:05:34.489Z,5.87
2018-05-11T17:08:02.080Z,5.73
2018-05-11T17:10:29.743Z,6.83
2018-05-11T17:12:57.411Z,9.57
2018-05-11T17:15:24.864Z,10.40
2018-05-11T17:17:52.382Z,10.30
2018-05-11T17:20:19.921Z,10.20
2018-05-11T17:22:47.613Z,12.20
2018-05-11T17:25:14.957Z,11.13
2018-05-11T17:27:42.427Z,8.20
2018-05-11T17:30:09.995Z,8.67
2018-05-11T17:32:37.670Z,8.90
2018-05-11T17:35:05.167Z,8.10
2018-05-11T17:37:32.783Z,8.37
2018-05-11T17:40:00.347Z,8.30
2018-05-11T17:42:27.807Z,8.60
2018-05-11T17:44:55.341Z,10.27
2018-05-11T17:47:23.001Z,13.57
2018-05-11T17:49:50.678Z,15.20
2018-05-11T17:52:18.581Z,15.20
2018-05-11T17:54:46.140Z,15.03
2018-05-11T17:57:13.943Z,14.47
2018-05-11T17:59:41.508Z,15.37
2018-05-11T18:02:09.103Z,14.63
2018-05-11T18:04:37.477Z,15.23
2018-05-11T18:07:05.017Z,14.37
2018-05-11T18:09:32.596Z,14.30
2018-05-11T18:12:00.133Z,13.43
2018-05-11T18:14:28.293Z,14.77
2018-05-11T18:16:56.014Z,14.87
2018-05-11T18:19:23.498Z,14.73
2018-05-11T18:21:51.089Z,15.20
2018-05-11T18:24:18.606Z,14.07
2018-05-11T18:26:46.668Z,12.73
2018-05-11T18:31:48.387Z,12.13
2018-05-11T18:34:15.897Z,11.33
2018-05-11T18:36:43.566Z,11.30
2018-05-11T18:39:11.067Z,11.53
2018-05-11T18:41:38.603Z,11.03
2018-05-11T18:44:06.182Z,11.03
2018-05-11T18:46:33.955Z,10.33
2018-05-11T18:49:01.421Z,9.97
2018-05-11T18:51:29.650Z,10.03
2018-05-11T18:53:57.389Z,11.20
2018-05-11T18:56:24.883Z,11.60
2018-05-11T18:58:52.518Z,10.80
2018-05-11T19:01:20.000Z,11.12
2018-05-11T19:03:47.452Z,10.43
2018-05-11T19:06:14.977Z,11.43
2018-05-11T19:08:42.765Z,11.23
2018-05-11T19:11:10.470Z,11.67
2018-05-11T19:13:37.992Z,11.23
2018-05-11T19:16:05.771Z,11.03
2018-05-11T19:18:35.172Z,11.80
2018-05-11T19:21:02.763Z,11.80
2018-05-11T19:23:30.256Z,11.40
2018-05-11T19:25:57.927Z,11.27
2018-05-11T19:28:25.619Z,11.60
2018-05-11T19:30:53.472Z,10.70
2018-05-11T19:33:20.924Z,10.80
2018-05-11T19:35:48.388Z,11.17
2018-05-11T19:38:15.940Z,11.63
2018-05-11T19:40:43.589Z,11.30
2018-05-11T19:43:11.157Z,11.10
2018-05-11T19:45:38.730Z,10.80
2018-05-11T19:48:06.216Z,10.80
2018-05-11T19:50:33.856Z,10.80
2018-05-11T19:53:01.602Z,10.53
2018-05-11T19:55:29.167Z,11.10
2018-05-11T19:57:56.805Z,10.83
2018-05-11T20:00:24.410Z,11.73
2018-05-11T20:02:52.625Z,11.80
2018-05-11T20:05:20.176Z,11.40
2018-05-11T20:07:47.635Z,11.60
2018-05-11T20:10:15.191Z,10.67
2018-05-11T20:12:42.776Z,11.03
2018-05-11T20:15:10.332Z,11.73
2018-05-11T20:17:37.902Z,10.70
2018-05-11T20:20:05.468Z,11.03
2018-05-11T20:22:33.018Z,10.70
2018-05-11T20:25:00.634Z,11.60
2018-05-11T20:27:28.184Z,10.87
2018-05-11T20:29:56.069Z,10.90
2018-05-11T20:32:23.557Z,10.37
2018-05-11T20:34:50.993Z,10.77
2018-05-11T20:37:18.581Z,10.53
2018-05-11T20:39:46.042Z,10.90
2018-05-11T20:42:14.983Z,10.63
2018-05-11T20:44:42.594Z,10.03
2018-05-11T20:47:10.044Z,10.43
2018-05-11T20:49:37.515Z,10.17
2018-05-11T20:52:05.136Z,10.53
2018-05-11T20:54:32.618Z,10.57
2018-05-11T20:57:00.696Z,10.33
2018-05-11T20:59:28.254Z,10.87
2018-05-11T21:01:55.812Z,10.57
2018-05-11T21:04:23.530Z,10.20
2018-05-11T21:06:51.206Z,9.97
2018-05-11T21:09:18.776Z,10.03
2018-05-11T21:11:46.359Z,9.93
2018-05-11T21:14:14.735Z,10.77
2018-05-11T21:16:42.417Z,10.63
2018-05-11T21:19:09.979Z,10.00
2018-05-11T21:21:37.445Z,9.23
2018-05-11T21:24:05.017Z,9.17
2018-05-11T21:26:32.522Z,10.57
2018-05-11T21:29:01.213Z,9.67
2018-05-11T21:31:28.667Z,10.13
2018-05-11T21:33:56.223Z,10.07
2018-05-11T21:36:24.498Z,8.57
2018-05-11T21:38:52.129Z,9.70
2018-05-11T21:41:19.584Z,10.50
2018-05-11T21:43:47.072Z,10.50
2018-05-11T21:46:14.574Z,10.33
2018-05-11T21:48:42.095Z,10.53
2018-05-11T21:51:10.313Z,9.67
2018-05-11T21:53:37.786Z,10.57
2018-05-11T21:56:05.971Z,10.20
2018-05-11T21:58:33.412Z,10.10
2018-05-11T22:01:01.037Z,9.87
2018-05-11T22:03:28.857Z,10.27
2018-05-11T22:05:57.318Z,9.93
2018-05-11T22:08:24.830Z,9.50
2018-05-11T22:10:52.319Z,9.13
2018-05-11T22:13:21.099Z,9.90
2018-05-11T22:15:48.723Z,9.97
2018-05-11T22:18:16.272Z,9.83
2018-05-11T22:20:43.808Z,9.63
2018-05-11T22:23:11.538Z,9.73
2018-05-11T22:25:39.030Z,9.70
2018-05-11T22:28:06.465Z,9.90
2018-05-11T22:30:33.992Z,9.68
2018-05-11T22:33:01.482Z,10.20
2018-05-11T22:35:30.093Z,10.00
2018-05-11T22:37:57.646Z,10.37
2018-05-11T22:40:26.738Z,9.33
2018-05-11T22:42:55.815Z,9.73
2018-05-11T22:45:23.345Z,9.30
2018-05-11T22:47:50.813Z,10.87
2018-05-11T22:50:18.346Z,9.47
2018-05-11T22:52:45.879Z,8.73
2018-05-11T22:55:13.324Z,9.03
2018-05-11T22:57:40.783Z,8.50
2018-05-11T23:00:08.251Z,8.70
2018-05-11T23:02:35.711Z,7.60
2018-05-11T23:05:03.218Z,8.20
2018-05-11T23:07:30.808Z,8.83
2018-05-11T23:09:58.276Z,9.57
2018-05-11T23:12:25.905Z,7.50
2018-05-11T23:14:53.432Z,8.10
2018-05-11T23:17:21.070Z,7.93
2018-05-11T23:19:48.571Z,7.73
2018-05-11T23:22:16.125Z,7.67
2018-05-11T23:24:43.673Z,7.67
2018-05-11T23:27:11.131Z,7.97
2018-05-11T23:29:38.908Z,7.80
2018-05-11T23:32:06.357Z,7.17
2018-05-11T23:34:33.908Z,7.40
2018-05-11T23:37:01.367Z,7.60
2018-05-11T23:39:29.040Z,7.40
2018-05-11T23:41:56.485Z,8.23
2018-05-11T23:44:23.925Z,8.03
2018-05-11T23:46:51.516Z,8.10
2018-05-11T23:49:18.976Z,7.93
2018-05-11T23:51:46.509Z,7.97
2018-05-11T23:54:14.088Z,7.30
2018-05-11T23:56:41.555Z,7.43
2018-05-11T23:59:09.082Z,7.40
